Portada
METAR-TAF:

METAR-TAF

Aeroports :

Mount Vernon Airport

Mount Vernon, Illinois, Estats Units d'Amèrica

latitud: 38-19N, longitud: 088-52W, altitud: 146 m

Observació

L'informe es va fer fa 1 hora i 10 minuts, a les 06:56 UTC
Vent 4 kt del Nord/Nord-Est
Temperatura 20°C
Humitat 78%
Pressió 1018 hPa
Visibilitat: 16.1 km
Cel clar

METAR: KMVN 180656Z AUTO 02004KT 10SM CLR 20/16 A3007 RMK AO2 SLP181 T02000161

Hora: 03:06 (08:06 UTC)

Pronòstic

L'informe es va fer fa 2 hores i 46 minuts, a les 05:20 UTC
Pronòstic vàlid del 18 a les 06 UTC al 19 a les 06 UTC
Vent 4 kt amb direcció variable
Visibilitat: 10 km
Núvols disperses a una alçada de 25000 ft
A partir de les 18 a les 1300 UTC
Vent 7 kt del Nord-Est
Visibilitat: 10 km
Escasses núvols a una alçada de 25000 ft
A partir de les 19 a les 0000 UTC
Vent 4 kt del Nord/Nord-Est
Visibilitat: 10 km
Cel clar

TAF: KMVN 180520Z 1806/1906 VRB04KT P6SM SCT250 FM181300 04007KT P6SM FEW250 FM190000 03004KT P6SM SKC

Observacions i pronòstics meteorològics de més de 4000 aeroports (METAR i TAF).

Les estacions disponibles són els punts grocs i vermells al mapa.

Posi el ratolí al punt desitjat per veure el nom de l'estació.

Feu clic per veure les observacions i els pronòstics meteorològics.

Per canviar el mapa: feu clic els botons verds amb una creu de color negre per apropar; al botó verd amb un guió per allunyar la imatge; o en les fletxes verdes per a mapes adjacents.


METAR-TAF: